Time;durP1;ratioP1;P1;durP2;ratioP2;P2;SDS_P1;SDS_P2;PMS_P1;PMS_P2;Temp;Humidity;BMP_temperature;BMP_pressure;BME280_temperature;BME280_humidity;BME280_pressure;Samples;Min_cycle;Max_cycle;Signal;HPM_P1;HPM_P2
2023/03/28 04:22:17;;;;;;;9.20;6.12;;;;;;;-1.30;100.00;100232.94;5559616;32;190979;-87
2023/03/28 04:25:23;;;;;;;10.90;6.25;;;;;;;-1.30;100.00;100232.94;5532416;32;33569;-87
2023/03/28 04:28:30;;;;;;;10.85;5.65;;;;;;;-1.29;100.00;100229.47;5530437;32;32746;-87
2023/03/28 04:31:38;;;;;;;9.20;6.55;;;;;;;-1.25;100.00;100239.00;5551750;32;35178;-86
2023/03/28 04:34:44;;;;;;;9.65;5.93;;;;;;;-1.25;100.00;100234.66;5530386;32;33042;-90
2023/03/28 04:37:48;;;;;;;9.57;6.03;;;;;;;-1.19;100.00;100241.59;5528583;32;33772;-90
2023/03/28 04:40:56;;;;;;;9.20;5.97;;;;;;;-1.25;100.00;100249.41;5539022;32;34590;-88
2023/03/28 04:44:01;;;;;;;10.02;6.50;;;;;;;-1.18;100.00;100255.44;5540900;32;35221;-87
2023/03/28 04:47:07;;;;;;;9.32;5.97;;;;;;;-1.15;100.00;100245.88;5541791;32;36358;-87
2023/03/28 04:50:11;;;;;;;7.95;5.85;;;;;;;-1.15;100.00;100261.50;5541181;32;35231;-86
2023/03/28 04:53:16;;;;;;;10.40;6.00;;;;;;;-1.05;100.00;100256.28;5539737;32;34735;-86
2023/03/28 04:56:22;;;;;;;9.10;6.00;;;;;;;-1.08;100.00;100270.19;5531247;32;32533;-86
2023/03/28 04:59:24;;;;;;;9.88;5.90;;;;;;;-1.00;100.00;100270.16;5528422;32;34366;-86
2023/03/28 05:02:28;;;;;;;8.38;6.12;;;;;;;-1.05;100.00;100270.19;5527511;32;34562;-86
2023/03/28 05:05:31;;;;;;;12.05;6.30;;;;;;;-0.96;100.00;100262.31;5527165;32;34162;-87
2023/03/28 05:08:34;;;;;;;7.65;5.47;;;;;;;-0.92;100.00;100276.19;5541385;32;33511;-86
2023/03/28 05:11:39;;;;;;;10.05;6.10;;;;;;;-0.85;100.00;100275.28;5547741;32;34402;-88
2023/03/28 05:14:42;;;;;;;8.63;5.97;;;;;;;-0.72;100.00;100286.53;5546435;32;33546;-87
2023/03/28 05:17:45;;;;;;;9.52;5.68;;;;;;;-0.58;100.00;100283.88;5538563;32;33774;-88
2023/03/28 05:20:51;;;;;;;7.85;5.90;;;;;;;-0.59;100.00;100283.88;5546508;32;33859;-87
2023/03/28 05:23:54;;;;;;;7.82;5.65;;;;;;;-0.52;100.00;100300.34;5549474;32;33867;-87
2023/03/28 05:26:57;;;;;;;10.18;5.60;;;;;;;-0.37;100.00;100297.66;5544430;32;33397;-87
2023/03/28 05:30:02;;;;;;;9.45;5.25;;;;;;;-0.42;100.00;100302.00;5549694;32;34038;-86
2023/03/28 05:33:06;;;;;;;10.27;5.93;;;;;;;-0.44;100.00;100311.59;5538125;32;34440;-87
2023/03/28 05:36:09;;;;;;;7.97;5.70;;;;;;;-0.40;100.00;100313.31;5534008;32;34102;-87
2023/03/28 05:39:12;;;;;;;9.32;5.72;;;;;;;-0.25;100.00;100317.53;5539932;32;34355;-87
2023/03/28 05:42:15;;;;;;;7.10;5.65;;;;;;;-0.29;100.00;100321.91;5520698;32;34117;-87
2023/03/28 05:45:19;;;;;;;8.57;5.78;;;;;;;-0.26;100.00;100328.00;5530899;32;34687;-88
2023/03/28 05:48:23;;;;;;;7.97;5.55;;;;;;;-0.14;100.00;100330.53;5535108;32;34170;-87
2023/03/28 05:51:26;;;;;;;9.55;6.10;;;;;;;0.01;100.00;100339.13;5536517;32;34222;-88
2023/03/28 05:54:29;;;;;;;7.65;5.87;;;;;;;0.29;100.00;100331.97;5540226;32;33710;-87
2023/03/28 05:57:32;;;;;;;8.65;5.65;;;;;;;0.93;100.00;100340.09;5532753;32;34199;-87
2023/03/28 06:00:36;;;;;;;8.73;5.47;;;;;;;1.32;100.00;100344.88;5523782;32;34480;-87
2023/03/28 06:03:41;;;;;;;9.40;5.22;;;;;;;2.05;100.00;100345.66;5529829;32;34273;-88
2023/03/28 06:06:50;;;;;;;8.50;5.55;;;;;;;2.51;99.69;100354.53;5551336;26;33955;-88
2023/03/28 06:09:57;;;;;;;6.75;5.53;;;;;;;3.90;90.20;100354.50;5553476;32;34245;-88
2023/03/28 06:13:00;;;;;;;7.53;5.35;;;;;;;4.00;87.73;100378.78;5526188;32;34217;-87
2023/03/28 06:16:03;;;;;;;5.57;4.90;;;;;;;6.09;79.46;100376.84;5517005;32;35093;-87
2023/03/28 06:22:51;;;;;;;7.28;5.65;;;;;;;6.54;73.12;100390.38;5489439;29;20104;-85
2023/03/28 06:25:54;;;;;;;9.85;5.47;;;;;;;7.54;68.36;100388.66;5550196;32;33931;-85
2023/03/28 06:28:57;;;;;;;5.80;5.20;;;;;;;6.30;72.47;100398.97;5563643;32;34228;-85
2023/03/28 06:32:01;;;;;;;8.73;5.85;;;;;;;6.65;71.86;100400.53;5550444;32;35494;-84
2023/03/28 06:35:04;;;;;;;7.55;5.55;;;;;;;7.21;69.17;100407.44;5546507;32;34054;-85
2023/03/28 06:38:07;;;;;;;5.95;5.32;;;;;;;7.55;67.41;100411.50;5550276;32;34705;-84
2023/03/28 06:41:11;;;;;;;8.55;5.47;;;;;;;6.05;73.24;100407.66;5555440;32;34720;-84
2023/03/28 06:44:15;;;;;;;5.53;4.97;;;;;;;6.38;73.22;100425.09;5555247;32;33910;-84
2023/03/28 06:47:19;;;;;;;8.50;5.72;;;;;;;5.43;75.38;100425.19;5558609;32;34907;-85
2023/03/28 06:50:25;;;;;;;8.25;6.32;;;;;;;4.92;78.61;100430.03;5552497;32;33870;-85
2023/03/28 06:53:28;;;;;;;8.77;5.53;;;;;;;4.68;81.05;100440.25;5551434;32;34429;-84
2023/03/28 06:56:32;;;;;;;7.18;5.80;;;;;;;5.08;79.10;100437.53;5553324;32;34216;-84
2023/03/28 06:59:34;;;;;;;7.40;5.43;;;;;;;5.38;77.32;100433.22;5550999;32;33971;-84
2023/03/28 07:02:38;;;;;;;6.90;5.80;;;;;;;5.38;76.94;100432.38;5553385;32;33866;-84
2023/03/28 07:05:41;;;;;;;8.20;6.12;;;;;;;6.28;74.02;100431.59;5551143;32;33920;-85
2023/03/28 07:08:45;;;;;;;8.18;6.00;;;;;;;7.05;70.29;100430.88;5554441;32;33944;-85
2023/03/28 07:11:48;;;;;;;8.02;5.12;;;;;;;8.31;65.79;100428.91;5551817;32;34336;-85
2023/03/28 07:14:51;;;;;;;7.05;5.35;;;;;;;8.21;62.30;100427.56;5551752;32;33607;-87
2023/03/28 07:17:54;;;;;;;7.70;5.53;;;;;;;8.03;63.31;100439.69;5549128;32;34618;-86
2023/03/28 07:20:57;;;;;;;6.15;5.45;;;;;;;7.33;66.34;100439.59;5563420;32;34045;-86
2023/03/28 07:24:06;;;;;;;6.10;5.18;;;;;;;8.89;61.86;100435.44;5565307;32;34729;-86
2023/03/28 07:27:10;;;;;;;5.37;4.60;;;;;;;9.27;59.75;100437.37;5563448;32;35151;-86
2023/03/28 07:30:18;;;;;;;6.18;5.50;;;;;;;9.32;56.61;100431.03;5560980;32;35118;-86
2023/03/28 07:33:21;;;;;;;4.65;4.22;;;;;;;9.19;57.78;100428.06;5557793;32;33795;-85
2023/03/28 07:36:40;;;;;;;6.45;4.07;;;;;;;9.50;55.40;100439.97;5551352;32;34144;-87
2023/03/28 07:39:44;;;;;;;6.05;3.90;;;;;;;10.24;52.68;100456.91;5540499;32;33829;-86
2023/03/28 07:42:48;;;;;;;6.18;3.95;;;;;;;8.52;55.20;100451.94;5548229;32;33962;-87
2023/03/28 07:45:59;;;;;;;4.03;3.50;;;;;;;9.71;53.11;100440.78;5549654;32;34149;-87
2023/03/28 07:49:02;;;;;;;5.00;3.50;;;;;;;9.94;52.12;100452.97;5555119;32;35438;-92
2023/03/28 07:52:06;;;;;;;7.28;3.37;;;;;;;12.04;46.16;100438.22;5557116;32;34581;-86
2023/03/28 07:55:09;;;;;;;5.28;3.10;;;;;;;13.26;42.59;100457.03;5540207;32;34041;-88
2023/03/28 07:58:12;;;;;;;3.83;3.42;;;;;;;12.62;39.33;100450.06;5554509;32;34392;-87
2023/03/28 08:01:17;;;;;;;3.55;3.25;;;;;;;10.40;44.87;100450.91;5552453;32;34120;-85
2023/03/28 08:04:21;;;;;;;3.40;3.10;;;;;;;10.64;44.27;100439.12;5549463;32;33821;-85
2023/03/28 08:07:24;;;;;;;3.78;2.75;;;;;;;11.81;42.32;100440.28;5548307;32;33037;-85
2023/03/28 08:10:28;;;;;;;4.10;3.00;;;;;;;11.00;43.19;100445.34;5549694;32;33984;-85
2023/03/28 08:13:30;;;;;;;4.05;3.10;;;;;;;12.75;40.39;100442.25;5562987;32;34254;-84
2023/03/28 08:16:35;;;;;;;2.85;2.62;;;;;;;10.54;43.62;100439.63;5563802;32;35035;-84
2023/03/28 08:19:38;;;;;;;2.92;2.70;;;;;;;11.12;44.95;100441.19;5551624;32;34994;-84
2023/03/28 08:22:43;;;;;;;6.15;2.90;;;;;;;11.18;43.14;100446.19;5549987;32;34197;-88
2023/03/28 08:25:46;;;;;;;3.00;2.70;;;;;;;8.83;48.23;100458.63;5548317;32;34544;-88
2023/03/28 08:28:53;;;;;;;7.62;3.12;;;;;;;9.73;48.21;100449.53;5547986;32;32539;-89
2023/03/28 08:31:56;;;;;;;4.68;3.35;;;;;;;9.61;48.99;100448.25;5544203;32;33947;-88
2023/03/28 08:35:04;;;;;;;4.75;2.97;;;;;;;8.99;50.63;100433.28;5548163;32;33948;-88
2023/03/28 08:38:07;;;;;;;6.82;3.08;;;;;;;9.14;53.17;100445.00;5547157;32;34195;-88
2023/03/28 08:41:26;;;;;;;3.33;3.00;;;;;;;8.94;51.37;100443.19;5550407;32;34930;-90
2023/03/28 08:44:52;;;;;;;7.60;3.00;;;;;;;8.38;53.05;100440.09;5548932;32;34597;-88
2023/03/28 08:48:38;;;;;;;3.42;2.70;;;;;;;9.50;52.04;100439.97;5547019;32;34777;-88
2023/03/28 08:51:46;;;;;;;9.20;2.72;;;;;;;8.80;52.64;100432.31;5549022;32;33936;-87
2023/03/28 08:55:01;;;;;;;2.85;2.62;;;;;;;9.85;49.77;100448.09;5546797;32;34288;-92
2023/03/28 08:58:05;;;;;;;6.82;2.65;;;;;;;11.39;48.56;100434.53;5557941;32;33564;-88
2023/03/28 09:01:09;;;;;;;3.47;2.80;;;;;;;11.29;43.37;100436.81;5549810;32;34306;-88
2023/03/28 09:04:25;;;;;;;5.20;2.47;;;;;;;10.08;58.51;100425.84;5549329;32;33901;-87
2023/03/28 09:07:38;;;;;;;3.72;2.70;;;;;;;9.33;50.50;100424.78;5549878;32;34847;-88
2023/03/28 09:10:50;;;;;;;3.90;2.65;;;;;;;8.93;51.47;100422.06;5551382;32;34035;-88
2023/03/28 09:14:14;;;;;;;4.05;2.15;;;;;;;10.28;45.86;100434.66;5558066;32;34245;-88
2023/03/28 09:17:44;;;;;;;4.32;2.40;;;;;;;9.03;49.25;100426.94;5548446;32;34425;-88
2023/03/28 09:21:18;;;;;;;3.67;2.30;;;;;;;8.99;49.61;100425.34;5551059;32;33640;-88
2023/03/28 09:25:02;;;;;;;4.75;1.60;;;;;;;9.71;45.64;100417.78;5540410;32;33937;-87
2023/03/28 09:28:17;;;;;;;2.20;1.65;;;;;;;8.96;42.57;100412.22;5542988;32;33489;-88
2023/03/28 09:31:26;;;;;;;2.85;1.58;;;;;;;9.03;42.59;100419.00;5547486;32;34253;-88
2023/03/28 09:34:49;;;;;;;3.33;1.65;;;;;;;10.92;45.22;100424.47;5551664;32;34244;-87
2023/03/28 09:37:59;;;;;;;2.90;1.40;;;;;;;11.00;41.58;100431.19;5552057;32;34199;-87
2023/03/28 09:41:14;;;;;;;1.50;1.27;;;;;;;11.08;42.05;100431.69;5557366;32;34217;-87
2023/03/28 09:44:28;;;;;;;3.08;1.30;;;;;;;10.42;37.58;100439.28;5550597;32;34097;-88
2023/03/28 09:47:34;;;;;;;1.73;1.00;;;;;;;9.17;42.17;100442.19;5553154;32;34336;-87
2023/03/28 09:50:38;;;;;;;2.25;0.90;;;;;;;10.92;37.58;100450.19;5542543;32;32754;-90
2023/03/28 09:57:22;;;;;;;6.00;1.52;;;;;;;9.41;37.58;100438.56;5555631;26;20076;-89
2023/03/28 10:26:42;;;;;;;1.52;1.42;;;;;;;8.27;41.20;100426.44;5572302;31;20083;-89
2023/03/28 10:29:46;;;;;;;3.53;1.85;;;;;;;11.03;38.36;100426.59;5595544;31;35245;-88
2023/03/28 10:33:16;;;;;;;2.20;1.92;;;;;;;11.40;37.32;100430.94;5562232;31;34243;-88
2023/03/28 10:36:42;;;;;;;1.58;1.42;;;;;;;10.40;38.06;100421.72;5556383;32;35040;-91
2023/03/28 10:40:01;;;;;;;1.70;1.45;;;;;;;8.38;41.65;100416.31;5560190;31;34204;-88
2023/03/28 10:43:12;;;;;;;2.33;1.80;;;;;;;8.40;42.84;100416.25;5557561;31;34900;-87
2023/03/28 10:46:18;;;;;;;2.15;1.80;;;;;;;7.81;43.99;100437.88;5565271;32;33834;-86
2023/03/28 10:49:23;;;;;;;3.78;1.77;;;;;;;7.51;45.52;100444.22;5549520;32;34395;-86
2023/03/28 10:52:52;;;;;;;1.87;1.60;;;;;;;7.95;43.84;100432.09;5561260;31;34009;-87
2023/03/28 10:56:07;;;;;;;2.30;1.62;;;;;;;8.21;41.78;100456.63;5564789;32;32863;-87
2023/03/28 10:59:22;;;;;;;2.03;1.50;;;;;;;7.96;42.87;100463.69;5575522;31;34451;-88
2023/03/28 11:02:46;;;;;;;1.90;1.65;;;;;;;7.26;42.77;100463.53;5563433;32;34106;-88
2023/03/28 11:06:20;;;;;;;3.85;1.90;;;;;;;6.92;45.41;100448.88;5564670;31;33624;-88
2023/03/28 11:09:59;;;;;;;1.60;1.50;;;;;;;9.44;37.71;100438.44;5564683;31;34994;-93
2023/03/28 11:13:16;;;;;;;;;;;;;;;7.91;39.56;100449.78;5527372;31;33729;-87
2023/03/28 11:16:40;;;;;;;1.15;1.10;;;;;;;8.16;38.71;100446.25;5566675;31;35297;-87
2023/03/28 11:20:05;;;;;;;2.08;1.23;;;;;;;6.99;39.99;100439.84;5561082;32;34864;-87
2023/03/28 11:23:22;;;;;;;2.00;1.85;;;;;;;7.45;40.29;100449.72;5559838;31;35108;-87
2023/03/28 11:26:34;;;;;;;1.87;1.52;;;;;;;7.87;41.95;100447.34;5569333;31;33970;-87
2023/03/28 11:29:42;;;;;;;1.50;1.40;;;;;;;8.95;39.93;100455.47;5576254;31;35105;-88
2023/03/28 11:33:03;;;;;;;1.50;1.40;;;;;;;9.61;36.21;100447.41;5557817;32;35225;-88
2023/03/28 11:36:21;;;;;;;1.33;1.23;;;;;;;8.48;37.45;100443.25;5560596;32;35013;-93
2023/03/28 11:39:55;;;;;;;1.67;1.25;;;;;;;7.95;38.18;100456.69;5573329;32;35130;-89
2023/03/28 11:43:03;;;;;;;1.95;1.62;;;;;;;7.78;35.95;100465.25;5573889;31;34866;-88
2023/03/28 11:46:19;;;;;;;2.17;1.40;;;;;;;7.57;38.21;100458.09;5653046;26;34207;-89
2023/03/28 11:49:36;;;;;;;1.30;1.25;;;;;;;7.40;37.17;100449.03;5590315;31;34439;-89
2023/03/28 11:52:53;;;;;;;2.42;1.12;;;;;;;6.96;37.63;100468.97;5590367;31;33719;-87
2023/03/28 11:56:15;;;;;;;1.12;1.02;;;;;;;6.63;37.80;100457.75;5583046;31;33743;-87
2023/03/28 11:59:45;;;;;;;;;;;;;;;6.54;38.25;100465.00;5586509;31;34383;-85
2023/03/28 12:03:05;;;;;;;1.27;1.17;;;;;;;6.74;38.30;100471.44;5573496;31;34374;-87
2023/03/28 12:06:18;;;;;;;1.50;1.30;;;;;;;7.09;36.72;100473.81;5580269;31;34219;-93
2023/03/28 12:09:46;;;;;;;1.23;1.00;;;;;;;7.18;36.58;100444.47;5588997;31;33821;-87
2023/03/28 12:13:22;;;;;;;1.50;1.20;;;;;;;7.23;37.14;100466.28;5585949;31;33969;-87
2023/03/28 12:16:36;;;;;;;2.50;1.25;;;;;;;6.92;35.72;100453.25;5587044;31;33658;-89
2023/03/28 12:19:47;;;;;;;3.20;1.15;;;;;;;7.45;36.57;100455.00;5575126;31;34061;-89
2023/03/28 12:22:54;;;;;;;2.28;1.00;;;;;;;7.72;35.16;100457.56;5582705;31;33884;-89
2023/03/28 12:26:17;;;;;;;1.48;1.00;;;;;;;7.53;33.41;100466.16;5589435;31;33844;-89
2023/03/28 12:29:37;;;;;;;1.50;1.02;;;;;;;7.22;33.52;100461.06;5588942;31;34525;-88
2023/03/28 12:32:47;;;;;;;1.95;1.20;;;;;;;7.39;34.76;100463.13;5575441;31;34352;-87
2023/03/28 12:36:09;;;;;;;1.30;1.20;;;;;;;6.98;34.96;100471.53;5581559;31;34660;-87
2023/03/28 12:39:34;;;;;;;5.57;1.10;;;;;;;7.40;33.07;100478.06;5585438;31;34582;-88
2023/03/28 12:42:41;;;;;;;1.20;1.10;;;;;;;7.56;31.85;100470.44;5593863;31;34105;-87
2023/03/28 12:45:51;;;;;;;0.80;0.80;;;;;;;7.60;31.46;100463.28;5581934;31;34126;-88
2023/03/28 12:49:04;;;;;;;1.52;0.73;;;;;;;7.72;29.77;100477.81;5591125;31;33802;-87
2023/03/28 12:52:18;;;;;;;2.62;1.15;;;;;;;7.65;31.43;100478.03;5591917;31;34516;-88
2023/03/28 12:55:23;;;;;;;1.10;1.00;;;;;;;7.78;31.01;100469.66;5587553;31;35216;-86
2023/03/28 12:58:32;;;;;;;1.25;1.10;;;;;;;7.50;31.13;100478.59;5590931;31;34015;-88
2023/03/28 13:01:51;;;;;;;0.90;0.90;;;;;;;6.94;34.23;100497.13;5591063;31;34746;-86
2023/03/28 13:05:19;;;;;;;1.80;1.05;;;;;;;6.56;31.69;100517.69;5574213;31;34301;-91
2023/03/28 13:08:48;;;;;;;1.20;1.10;;;;;;;6.32;32.31;100499.94;5576216;31;35252;-90
2023/03/28 13:11:57;;;;;;;1.55;1.10;;;;;;;5.87;33.42;100501.19;5544834;31;34171;-92
2023/03/28 13:15:12;;;;;;;1.58;1.30;;;;;;;5.36;34.63;100513.97;5581826;31;33783;-89
2023/03/28 13:18:20;;;;;;;3.45;1.25;;;;;;;5.65;34.64;100509.66;5592431;31;35891;-88
2023/03/28 13:21:51;;;;;;;2.28;1.02;;;;;;;5.50;34.96;100515.37;5596255;31;34593;-90
2023/03/28 13:25:32;;;;;;;0.95;0.80;;;;;;;5.72;34.79;100520.03;5596259;31;34316;-88
2023/03/28 13:28:41;;;;;;;3.87;1.45;;;;;;;5.29;34.94;100525.53;5590417;31;34573;-88
2023/03/28 13:31:44;;;;;;;1.10;1.00;;;;;;;5.38;35.16;100522.66;5582515;31;33952;-89
2023/03/28 13:35:00;;;;;;;5.28;1.58;;;;;;;5.61;32.64;100528.22;5576882;31;34365;-89
2023/03/28 13:38:22;;;;;;;21.30;2.95;;;;;;;5.74;37.34;100544.56;5586128;31;33528;-90
2023/03/28 13:41:51;;;;;;;19.87;3.05;;;;;;;5.89;49.90;100564.34;5609605;26;33858;-90
2023/03/28 13:45:00;;;;;;;13.50;2.70;;;;;;;5.53;55.24;100555.63;5562006;31;34399;-90
2023/03/28 13:48:03;;;;;;;15.15;2.30;;;;;;;5.37;56.26;100584.09;5582657;31;34093;-90
2023/03/28 13:51:20;;;;;;;7.65;1.75;;;;;;;5.25;54.67;100581.75;5575514;31;34426;-90
2023/03/28 13:54:24;;;;;;;2.72;2.00;;;;;;;4.97;53.43;100566.63;5596398;31;34256;-89
2023/03/28 13:57:27;;;;;;;4.60;1.92;;;;;;;4.80;53.88;100570.53;5588184;31;35495;-89
2023/03/28 14:00:30;;;;;;;6.60;2.08;;;;;;;4.46;54.46;100589.63;5596109;31;34281;-89
2023/03/28 14:03:34;;;;;;;6.47;1.90;;;;;;;4.35;53.08;100587.25;5592243;31;35042;-90
2023/03/28 14:06:40;;;;;;;11.48;1.80;;;;;;;4.43;51.51;100592.34;5582240;31;33671;-89
2023/03/28 14:09:43;;;;;;;12.10;1.60;;;;;;;4.88;48.84;100596.59;5574233;31;33521;-90
2023/03/28 14:12:50;;;;;;;7.32;2.08;;;;;;;4.97;48.22;100593.78;5573700;31;33815;-89
2023/03/28 14:15:54;;;;;;;4.32;1.65;;;;;;;5.12;45.08;100597.81;5585695;31;34623;-89
2023/03/28 14:19:04;;;;;;;3.55;1.40;;;;;;;4.94;43.23;100593.00;5585145;31;34297;-89
2023/03/28 14:22:19;;;;;;;2.85;1.37;;;;;;;5.10;43.62;100597.00;5584002;31;34462;-89
2023/03/28 14:25:23;;;;;;;2.55;1.42;;;;;;;5.25;44.87;100608.06;5585634;31;34066;-89
2023/03/28 14:28:28;;;;;;;3.92;1.50;;;;;;;5.22;44.27;100592.34;5578253;31;34490;-90
2023/03/28 14:31:34;;;;;;;2.35;1.60;;;;;;;5.45;43.99;100599.69;5604633;31;34756;-89
2023/03/28 14:34:40;;;;;;;1.35;1.25;;;;;;;5.57;44.19;100598.50;5582846;31;34042;-89
2023/03/28 14:37:50;;;;;;;2.65;1.20;;;;;;;5.84;43.82;100596.03;5589413;31;33736;-90
2023/03/28 14:41:03;;;;;;;1.30;1.20;;;;;;;5.35;44.36;100596.41;5595478;31;34738;-90
2023/03/28 14:44:06;;;;;;;1.92;1.30;;;;;;;5.36;42.59;100610.41;5570120;32;34709;-89
2023/03/28 14:47:20;;;;;;;1.17;1.05;;;;;;;5.43;38.14;100603.25;5572330;32;33778;-89
2023/03/28 14:50:27;;;;;;;2.37;1.05;;;;;;;5.42;37.48;100622.59;5571367;31;34185;-89
2023/03/28 14:53:39;;;;;;;3.35;1.30;;;;;;;5.29;37.90;100622.00;5573558;32;35335;-91
2023/03/28 14:56:43;;;;;;;1.17;1.10;;;;;;;5.31;38.40;100623.69;5569932;32;34840;-89
2023/03/28 14:59:49;;;;;;;1.48;1.05;;;;;;;5.18;36.15;100640.66;5571716;32;33907;-89
2023/03/28 15:02:56;;;;;;;1.30;1.20;;;;;;;4.95;37.14;100631.53;5572233;32;33725;-89
2023/03/28 15:06:22;;;;;;;1.83;1.33;;;;;;;5.05;37.76;100640.94;5577902;31;33952;-89
2023/03/28 15:14:24;;;;;;;1.60;1.50;;;;;;;5.05;40.82;100617.28;5575584;32;35755;-88
2023/03/28 15:17:48;;;;;;;1.90;1.33;;;;;;;5.00;43.17;100637.56;5572680;32;34845;-88
2023/03/28 15:20:55;;;;;;;2.60;1.25;;;;;;;4.89;41.88;100642.19;5573753;32;33662;-88
2023/03/28 15:23:59;;;;;;;1.25;1.15;;;;;;;4.74;40.68;100635.47;5572267;32;34152;-88
